createdAt,value
2018-12-16T00:01:04.901Z,25.67
2018-12-16T00:03:33.105Z,23.87
2018-12-16T00:06:01.217Z,25.83
2018-12-16T00:08:29.358Z,25.93
2018-12-16T00:10:57.431Z,25.97
2018-12-16T00:13:27.484Z,25.93
2018-12-16T00:15:55.791Z,25.70
2018-12-16T00:18:24.319Z,25.80
2018-12-16T00:20:52.460Z,25.60
2018-12-16T00:23:20.666Z,26.30
2018-12-16T00:25:48.766Z,25.87
2018-12-16T00:28:16.868Z,27.27
2018-12-16T00:30:45.140Z,28.93
2018-12-16T00:33:13.692Z,28.03
2018-12-16T00:35:41.780Z,28.30
2018-12-16T00:38:09.931Z,26.37
2018-12-16T00:40:38.090Z,27.87
2018-12-16T00:43:06.239Z,28.17
2018-12-16T00:45:34.672Z,27.17
2018-12-16T00:48:02.756Z,27.67
2018-12-16T00:50:30.919Z,26.70
2018-12-16T00:52:59.067Z,28.13
2018-12-16T00:55:27.185Z,28.60
2018-12-16T00:57:55.280Z,30.47
2018-12-16T01:00:23.420Z,27.67
2018-12-16T01:02:52.104Z,29.23
2018-12-16T01:05:20.353Z,27.43
2018-12-16T01:07:48.488Z,29.37
2018-12-16T01:10:16.872Z,29.63
2018-12-16T01:12:45.169Z,28.90
2018-12-16T01:15:13.586Z,29.20
2018-12-16T01:17:41.712Z,28.03
2018-12-16T01:20:09.799Z,29.67
2018-12-16T01:22:43.345Z,30.00
2018-12-16T01:25:08.124Z,28.07
2018-12-16T01:27:36.203Z,29.77
2018-12-16T01:30:04.750Z,28.83
2018-12-16T01:32:32.843Z,30.17
2018-12-16T01:35:00.932Z,28.97
2018-12-16T01:37:29.308Z,29.93
2018-12-16T01:39:57.752Z,28.97
2018-12-16T01:42:25.875Z,28.20
2018-12-16T01:44:54.186Z,28.53
2018-12-16T01:47:22.327Z,29.63
2018-12-16T01:49:50.380Z,28.67
2018-12-16T01:52:18.505Z,29.07
2018-12-16T01:54:46.705Z,28.27
2018-12-16T01:57:14.904Z,28.53
2018-12-16T01:59:42.995Z,28.57
2018-12-16T02:02:11.114Z,29.10
2018-12-16T02:04:39.231Z,28.90
2018-12-16T02:07:07.629Z,29.17
2018-12-16T02:09:35.748Z,29.30
2018-12-16T02:12:03.891Z,27.77
2018-12-16T02:14:32.094Z,28.93
2018-12-16T02:17:00.227Z,27.20
2018-12-16T02:19:28.331Z,28.57
2018-12-16T02:21:56.684Z,29.23
2018-12-16T02:24:24.794Z,26.50
2018-12-16T02:26:52.891Z,28.30
2018-12-16T02:29:21.311Z,26.90
2018-12-16T02:31:49.541Z,29.90
2018-12-16T02:34:17.896Z,28.50
2018-12-16T02:36:46.179Z,27.10
2018-12-16T02:39:14.291Z,27.80
2018-12-16T02:41:42.518Z,27.33
2018-12-16T02:44:10.909Z,27.80
2018-12-16T02:46:39.107Z,28.07
2018-12-16T02:49:07.226Z,27.40
2018-12-16T02:51:35.441Z,24.87
2018-12-16T02:54:03.585Z,28.73
2018-12-16T02:56:31.681Z,26.80
2018-12-16T02:59:00.116Z,27.87
2018-12-16T03:01:28.245Z,28.27
2018-12-16T03:03:56.415Z,29.10
2018-12-16T03:06:24.571Z,28.07
2018-12-16T03:08:52.700Z,30.60
2018-12-16T03:11:20.822Z,29.90
2018-12-16T03:13:49.014Z,26.67
2018-12-16T03:16:17.195Z,29.23
2018-12-16T03:18:45.293Z,29.63
2018-12-16T03:21:13.651Z,30.10
2018-12-16T03:23:41.711Z,28.57
2018-12-16T03:26:09.822Z,27.80
2018-12-16T03:28:37.957Z,30.00
2018-12-16T03:31:06.072Z,29.47
2018-12-16T03:33:34.174Z,29.57
2018-12-16T03:36:02.516Z,28.97
2018-12-16T03:38:30.625Z,28.93
2018-12-16T03:40:58.743Z,28.17
2018-12-16T03:43:26.818Z,27.63
2018-12-16T03:45:55.472Z,29.83
2018-12-16T03:48:23.645Z,27.33
2018-12-16T03:50:52.168Z,28.30
2018-12-16T03:53:20.471Z,29.27
2018-12-16T03:55:48.632Z,27.67
2018-12-16T03:58:16.792Z,27.70
2018-12-16T04:00:45.312Z,28.73
2018-12-16T04:03:13.333Z,29.27
2018-12-16T04:05:41.674Z,27.30
2018-12-16T04:08:09.758Z,28.70
2018-12-16T04:10:37.887Z,30.17
2018-12-16T04:13:06.247Z,29.67
2018-12-16T04:15:34.324Z,29.97
2018-12-16T04:18:02.375Z,28.83
2018-12-16T04:20:30.527Z,29.70
2018-12-16T04:22:58.585Z,30.17
2018-12-16T04:25:26.596Z,30.27
2018-12-16T04:27:54.890Z,30.60
2018-12-16T04:30:23.000Z,27.53
2018-12-16T04:32:51.002Z,30.50
2018-12-16T04:35:19.307Z,29.97
2018-12-16T04:37:47.659Z,30.30
2018-12-16T04:40:15.731Z,31.50
2018-12-16T04:42:43.787Z,30.83
2018-12-16T04:45:11.884Z,30.87
2018-12-16T04:47:39.963Z,29.97
2018-12-16T04:50:08.025Z,29.93
2018-12-16T04:52:36.216Z,31.10
2018-12-16T04:55:04.300Z,31.30
2018-12-16T04:57:32.376Z,32.50
2018-12-16T05:00:00.431Z,31.17
2018-12-16T05:02:28.787Z,31.50
2018-12-16T05:04:56.824Z,31.23
2018-12-16T05:07:24.890Z,30.50
2018-12-16T05:09:53.220Z,32.60
2018-12-16T05:12:21.356Z,32.53
2018-12-16T05:14:49.404Z,33.53
2018-12-16T05:17:17.597Z,31.33
2018-12-16T05:19:45.614Z,30.70
2018-12-16T05:22:13.663Z,29.90
2018-12-16T05:24:41.842Z,31.73
2018-12-16T05:27:09.918Z,32.20
2018-12-16T05:29:37.931Z,31.03
2018-12-16T05:32:05.969Z,33.50
2018-12-16T05:34:34.022Z,31.53
2018-12-16T05:37:02.106Z,31.37
2018-12-16T05:39:30.174Z,32.73
2018-12-16T05:41:58.265Z,30.70
2018-12-16T05:44:26.535Z,32.47
2018-12-16T05:46:54.549Z,32.57
2018-12-16T05:49:22.895Z,33.33
2018-12-16T05:51:51.212Z,32.10
2018-12-16T05:54:19.234Z,32.33
2018-12-16T05:56:47.283Z,32.30
2018-12-16T05:59:15.361Z,31.43
2018-12-16T06:01:43.426Z,33.63
2018-12-16T06:04:11.472Z,34.77
2018-12-16T06:06:39.953Z,33.97
2018-12-16T06:09:07.947Z,34.93
2018-12-16T06:11:36.042Z,35.97
2018-12-16T06:14:04.212Z,33.67
2018-12-16T06:16:32.257Z,30.27
2018-12-16T06:19:00.374Z,33.90
2018-12-16T06:21:28.737Z,34.30
2018-12-16T06:23:56.809Z,35.07
2018-12-16T06:26:24.843Z,30.83
2018-12-16T06:28:53.321Z,33.60
2018-12-16T06:31:21.354Z,34.97
2018-12-16T06:33:49.445Z,35.10
2018-12-16T06:36:17.596Z,35.37
2018-12-16T06:38:45.786Z,34.10
2018-12-16T06:41:13.920Z,31.10
2018-12-16T06:43:42.263Z,35.70
2018-12-16T06:46:10.377Z,32.40
2018-12-16T06:48:38.440Z,32.63
2018-12-16T06:51:06.511Z,33.30
2018-12-16T06:53:34.640Z,33.20
2018-12-16T06:56:06.587Z,34.67
2018-12-16T06:58:32.713Z,32.23
2018-12-16T07:01:00.742Z,31.97
2018-12-16T07:03:28.795Z,33.77
2018-12-16T07:05:56.807Z,35.03
2018-12-16T07:08:25.551Z,35.23
2018-12-16T07:10:54.153Z,32.80
2018-12-16T07:13:22.232Z,34.37
2018-12-16T07:15:50.352Z,35.07
2018-12-16T07:18:18.439Z,34.60
2018-12-16T07:20:46.494Z,35.27
2018-12-16T07:23:14.874Z,34.77
2018-12-16T07:25:42.952Z,35.13
2018-12-16T07:28:11.540Z,41.13
2018-12-16T07:30:40.757Z,33.53
2018-12-16T07:33:08.783Z,35.47
2018-12-16T07:35:36.869Z,33.70
2018-12-16T07:38:06.146Z,37.17
2018-12-16T07:40:34.929Z,35.93
2018-12-16T07:43:07.833Z,33.20
2018-12-16T07:45:36.178Z,37.17
2018-12-16T07:48:04.380Z,35.20
2018-12-16T07:50:32.588Z,36.93
2018-12-16T07:53:00.681Z,35.37
2018-12-16T07:55:28.853Z,35.43
2018-12-16T07:57:57.103Z,39.93
2018-12-16T08:00:42.487Z,36.67
2018-12-16T08:03:26.837Z,38.97
2018-12-16T08:06:02.637Z,37.20
2018-12-16T08:08:39.667Z,42.13
2018-12-16T08:11:18.438Z,35.43
2018-12-16T08:13:55.130Z,35.03
2018-12-16T08:19:16.058Z,37.03
2018-12-16T08:24:45.321Z,34.10
2018-12-16T08:27:19.274Z,37.10
2018-12-16T08:33:00.771Z,34.10
2018-12-16T08:38:33.676Z,33.60
2018-12-16T08:41:18.011Z,33.73
2018-12-16T08:43:48.663Z,34.47
2018-12-16T08:46:33.150Z,35.73
2018-12-16T08:49:09.198Z,34.77
2018-12-16T08:54:36.142Z,38.53
2018-12-16T08:57:20.779Z,32.57
2018-12-16T08:59:59.299Z,27.50
2018-12-16T09:02:37.392Z,30.50
2018-12-16T09:05:12.009Z,31.70
2018-12-16T09:07:45.963Z,28.03
2018-12-16T09:13:18.474Z,29.83
2018-12-16T09:15:59.247Z,32.27
2018-12-16T09:18:38.927Z,26.10
2018-12-16T09:21:21.455Z,31.00
2018-12-16T09:23:59.316Z,30.67
2018-12-16T09:26:36.089Z,39.13
2018-12-16T09:32:02.894Z,26.13
2018-12-16T09:34:41.021Z,28.10
2018-12-16T09:43:08.463Z,26.60
2018-12-16T09:48:36.393Z,24.43
2018-12-16T09:51:16.280Z,28.73
2018-12-16T09:53:52.131Z,28.73
2018-12-16T09:56:30.854Z,29.53
2018-12-16T09:59:03.103Z,30.37
2018-12-16T10:01:39.741Z,26.57
2018-12-16T10:04:14.295Z,29.53
2018-12-16T10:06:42.421Z,30.03
2018-12-16T10:09:10.560Z,29.20
2018-12-16T10:11:38.687Z,25.10
2018-12-16T10:14:06.825Z,28.87
2018-12-16T10:16:35.519Z,28.77
2018-12-16T10:21:50.562Z,25.73
2018-12-16T10:24:19.396Z,33.00
2018-12-16T10:26:50.078Z,34.07
2018-12-16T10:29:24.108Z,27.37
2018-12-16T10:31:52.192Z,29.17
2018-12-16T10:34:20.915Z,29.90
2018-12-16T10:36:49.385Z,28.53
2018-12-16T10:39:17.575Z,28.50
2018-12-16T10:41:57.059Z,30.00
2018-12-16T10:53:13.633Z,28.47
2018-12-16T10:55:41.911Z,30.13
2018-12-16T10:58:10.064Z,31.37
2018-12-16T11:00:43.985Z,29.03
2018-12-16T11:03:12.527Z,31.10
2018-12-16T11:05:40.834Z,28.50
2018-12-16T11:08:09.294Z,29.00
2018-12-16T11:10:37.670Z,29.30
2018-12-16T11:13:05.973Z,30.63
2018-12-16T11:15:37.907Z,32.47
2018-12-16T11:18:06.247Z,33.80
2018-12-16T11:20:34.428Z,29.77
2018-12-16T11:23:06.118Z,29.63
2018-12-16T11:25:35.719Z,28.93
2018-12-16T11:28:04.082Z,31.33
2018-12-16T11:30:32.968Z,27.83
2018-12-16T11:33:01.358Z,30.43
2018-12-16T11:35:30.215Z,36.73
2018-12-16T11:37:59.712Z,28.37
2018-12-16T11:40:28.181Z,30.47
2018-12-16T11:42:56.242Z,31.70
2018-12-16T11:45:24.330Z,32.70
2018-12-16T11:47:52.820Z,29.90
2018-12-16T11:54:01.968Z,29.07
2018-12-16T11:56:30.298Z,32.90
2018-12-16T11:58:58.523Z,28.73
2018-12-16T12:01:26.618Z,32.33
2018-12-16T12:03:55.591Z,32.63
2018-12-16T12:06:23.665Z,34.80
2018-12-16T12:08:51.859Z,33.87
2018-12-16T12:11:20.012Z,33.87
2018-12-16T12:13:48.914Z,33.60
2018-12-16T12:16:16.983Z,30.70
2018-12-16T12:18:45.058Z,28.77
2018-12-16T12:21:13.411Z,32.67
2018-12-16T12:23:41.505Z,30.47
2018-12-16T12:26:09.626Z,31.83
2018-12-16T12:28:37.954Z,27.40
2018-12-16T12:31:07.051Z,28.63
2018-12-16T12:33:35.132Z,32.17
2018-12-16T12:36:03.202Z,30.43
2018-12-16T12:38:32.004Z,28.77
2018-12-16T12:41:00.076Z,31.47
2018-12-16T12:43:28.135Z,31.90
2018-12-16T12:45:56.220Z,32.60
2018-12-16T12:57:17.065Z,32.30
2018-12-16T13:14:18.165Z,30.87
2018-12-16T13:16:48.104Z,31.77
2018-12-16T13:19:23.060Z,32.10
2018-12-16T13:22:07.669Z,34.07
2018-12-16T13:27:20.734Z,30.93
2018-12-16T13:35:53.740Z,31.43
2018-12-16T13:38:26.318Z,36.27
2018-12-16T13:40:58.466Z,33.97
2018-12-16T13:43:31.896Z,35.87
2018-12-16T13:46:05.346Z,37.13
2018-12-16T13:48:35.048Z,36.97
2018-12-16T13:53:51.271Z,35.50
2018-12-16T13:56:20.837Z,35.53
2018-12-16T13:58:50.900Z,35.60
2018-12-16T14:01:31.690Z,32.40
2018-12-16T14:09:58.558Z,38.13
2018-12-16T14:30:19.035Z,37.13
2018-12-16T14:32:50.706Z,36.93
2018-12-16T14:38:28.398Z,35.70
2018-12-16T14:43:55.952Z,37.30
2018-12-16T14:49:26.186Z,38.17
2018-12-16T14:52:06.141Z,38.63
2018-12-16T14:54:34.324Z,40.87
2018-12-16T14:57:02.517Z,41.37
2018-12-16T15:02:27.655Z,38.17
2018-12-16T15:07:51.854Z,34.47
2018-12-16T15:10:30.242Z,34.27
2018-12-16T15:12:58.713Z,35.37
2018-12-16T15:15:39.159Z,37.67
2018-12-16T15:18:07.552Z,37.30
2018-12-16T15:20:37.594Z,36.43
2018-12-16T15:23:09.131Z,38.07
2018-12-16T15:25:51.494Z,36.43
2018-12-16T15:31:31.847Z,36.87
2018-12-16T15:34:03.971Z,36.77
2018-12-16T15:39:36.074Z,39.83
2018-12-16T15:42:04.353Z,40.27
2018-12-16T15:44:32.678Z,38.00
2018-12-16T15:47:00.847Z,40.73
2018-12-16T15:49:28.981Z,42.43
2018-12-16T15:51:57.173Z,44.07
2018-12-16T15:57:11.499Z,44.53
2018-12-16T15:59:39.736Z,46.13
2018-12-16T16:02:08.026Z,47.80
2018-12-16T16:04:36.446Z,45.30
2018-12-16T16:07:11.150Z,46.17
2018-12-16T16:09:40.210Z,48.33
2018-12-16T16:12:09.219Z,48.90
2018-12-16T16:17:47.596Z,49.73
2018-12-16T16:20:17.188Z,47.87
2018-12-16T16:22:46.922Z,50.03
2018-12-16T16:25:33.298Z,47.10
2018-12-16T16:28:02.450Z,49.47
2018-12-16T16:30:30.821Z,48.93
2018-12-16T16:33:00.695Z,46.00
2018-12-16T16:35:29.186Z,43.43
2018-12-16T16:38:01.729Z,44.27
2018-12-16T16:43:27.459Z,45.93
2018-12-16T16:46:08.297Z,48.47
2018-12-16T16:48:36.881Z,45.17
2018-12-16T16:51:09.252Z,45.70
2018-12-16T16:53:38.629Z,46.20
2018-12-16T16:56:11.946Z,44.53
2018-12-16T17:04:29.084Z,42.37
2018-12-16T17:06:57.592Z,44.13
2018-12-16T17:09:26.222Z,42.43
2018-12-16T17:11:58.449Z,44.43
2018-12-16T17:14:27.177Z,41.87
2018-12-16T17:16:55.557Z,42.90
2018-12-16T17:19:24.357Z,46.83
2018-12-16T17:27:48.110Z,43.47
2018-12-16T17:30:16.999Z,44.40
2018-12-16T17:32:57.159Z,43.67
2018-12-16T17:38:21.795Z,43.03
2018-12-16T17:40:50.250Z,44.27
2018-12-16T17:43:18.771Z,46.30
2018-12-16T17:45:47.458Z,46.03
2018-12-16T17:48:16.318Z,47.37
2018-12-16T17:50:44.808Z,44.83
2018-12-16T17:53:13.070Z,45.33
2018-12-16T17:55:51.332Z,41.33
2018-12-16T18:04:12.334Z,37.00
2018-12-16T18:15:28.309Z,39.07
2018-12-16T18:18:02.333Z,38.77
2018-12-16T18:20:52.924Z,39.10
2018-12-16T18:41:14.842Z,43.17
2018-12-16T18:43:57.105Z,42.73
2018-12-16T18:54:55.341Z,39.03
2018-12-16T18:57:35.679Z,41.30
2018-12-16T19:00:16.707Z,39.97
2018-12-16T19:02:58.941Z,39.83
2018-12-16T19:05:28.753Z,37.70
2018-12-16T19:07:56.918Z,37.43
2018-12-16T19:10:25.745Z,37.90
2018-12-16T19:12:53.910Z,36.00
2018-12-16T19:15:22.692Z,31.10
2018-12-16T19:18:00.197Z,33.27
2018-12-16T19:20:39.075Z,35.27
2018-12-16T19:23:16.981Z,33.30
2018-12-16T19:25:56.982Z,34.73
2018-12-16T19:34:09.087Z,31.73
2018-12-16T19:36:37.578Z,31.83
2018-12-16T19:39:05.977Z,33.20
2018-12-16T19:41:34.073Z,35.40
2018-12-16T19:44:02.147Z,32.33
2018-12-16T19:46:40.189Z,35.50
2018-12-16T19:49:13.015Z,29.87
2018-12-16T19:51:50.718Z,31.67
2018-12-16T19:54:21.197Z,32.57
2018-12-16T19:56:49.538Z,31.97
2018-12-16T19:59:27.166Z,31.97
2018-12-16T20:01:55.261Z,34.37
2018-12-16T20:04:36.398Z,35.13
2018-12-16T20:10:00.850Z,35.20
2018-12-16T20:15:25.611Z,34.63
2018-12-16T20:18:00.148Z,36.10
2018-12-16T20:20:40.626Z,36.57
2018-12-16T20:23:08.755Z,39.63
2018-12-16T20:25:39.185Z,39.83
2018-12-16T20:28:07.328Z,41.37
2018-12-16T20:30:42.533Z,41.50
2018-12-16T20:33:10.701Z,41.97
2018-12-16T20:35:39.767Z,42.73
2018-12-16T20:38:07.975Z,43.30
2018-12-16T20:40:43.487Z,43.33
2018-12-16T20:43:26.462Z,45.33
2018-12-16T20:48:50.737Z,45.43
2018-12-16T20:54:30.126Z,51.80
2018-12-16T21:00:07.680Z,51.93
2018-12-16T21:05:32.741Z,49.27
2018-12-16T21:08:10.475Z,49.73
2018-12-16T21:13:50.134Z,52.33
2018-12-16T21:28:20.869Z,50.33
2018-12-16T21:30:50.377Z,46.33
2018-12-16T21:33:32.492Z,47.40
2018-12-16T21:36:13.954Z,46.63
2018-12-16T21:38:54.662Z,45.30
2018-12-16T21:47:33.239Z,43.43
2018-12-16T21:56:05.974Z,48.93
2018-12-16T21:58:39.599Z,47.63
2018-12-16T22:01:16.935Z,46.77
2018-12-16T22:09:51.958Z,44.10
2018-12-16T22:12:36.807Z,44.47
2018-12-16T22:15:13.470Z,39.97
2018-12-16T22:17:45.957Z,42.37
2018-12-16T22:23:18.923Z,40.93
2018-12-16T22:25:57.629Z,41.70
2018-12-16T22:31:38.397Z,42.63
2018-12-16T22:34:17.331Z,41.73
2018-12-16T22:36:52.444Z,41.97
2018-12-16T22:39:32.407Z,41.30
2018-12-16T22:42:10.529Z,38.50
2018-12-16T22:44:44.852Z,38.10
2018-12-16T22:53:05.577Z,39.60
2018-12-16T22:55:39.451Z,39.57
2018-12-16T22:58:19.551Z,42.83
2018-12-16T23:01:00.892Z,41.03
2018-12-16T23:03:36.825Z,41.73
2018-12-16T23:06:12.832Z,41.77
2018-12-16T23:08:55.311Z,41.00
2018-12-16T23:11:33.210Z,41.83
2018-12-16T23:14:11.424Z,41.90
2018-12-16T23:16:46.055Z,44.23
2018-12-16T23:19:24.542Z,44.70
2018-12-16T23:22:00.942Z,43.63
2018-12-16T23:27:42.218Z,44.10
2018-12-16T23:33:08.726Z,38.87
2018-12-16T23:35:49.256Z,42.00
2018-12-16T23:38:25.789Z,40.53
2018-12-16T23:41:03.945Z,41.53
2018-12-16T23:43:42.484Z,43.23
2018-12-16T23:46:17.734Z,44.97
2018-12-16T23:48:55.871Z,44.50
2018-12-16T23:51:30.607Z,45.37
2018-12-16T23:54:04.409Z,43.90
2018-12-16T23:56:39.621Z,45.30
2018-12-16T23:59:17.921Z,45.13
